createdAt,value
2018-01-30T00:02:12.794Z,90.10
2018-01-30T00:04:39.848Z,89.90
2018-01-30T00:07:07.534Z,90.20
2018-01-30T00:09:34.571Z,90.20
2018-01-30T00:12:01.467Z,89.50
2018-01-30T00:14:28.382Z,89.60
2018-01-30T00:16:55.219Z,89.60
2018-01-30T00:19:22.102Z,90.00
2018-01-30T00:21:48.979Z,90.10
2018-01-30T00:24:15.816Z,89.90
2018-01-30T00:26:42.642Z,90.00
2018-01-30T00:29:09.485Z,90.00
2018-01-30T00:31:36.366Z,90.10
2018-01-30T00:34:03.266Z,89.50
2018-01-30T00:36:30.096Z,89.90
2018-01-30T00:38:56.954Z,90.30
2018-01-30T00:41:24.550Z,90.30
2018-01-30T00:43:51.385Z,90.30
2018-01-30T00:46:18.277Z,90.10
2018-01-30T00:48:46.062Z,90.00
2018-01-30T00:51:13.726Z,90.30
2018-01-30T00:53:41.430Z,90.30
2018-01-30T00:56:08.334Z,90.60
2018-01-30T00:58:35.398Z,90.50
2018-01-30T01:01:03.222Z,90.70
2018-01-30T01:03:30.062Z,90.70
2018-01-30T01:05:56.921Z,90.80
2018-01-30T01:08:23.817Z,91.20
2018-01-30T01:10:50.670Z,90.50
2018-01-30T01:13:17.839Z,90.60
2018-01-30T01:15:44.758Z,90.80
2018-01-30T01:18:11.586Z,90.80
2018-01-30T01:20:39.222Z,90.80
2018-01-30T01:23:06.241Z,90.70
2018-01-30T01:25:33.129Z,90.60
2018-01-30T01:28:00.289Z,90.50
2018-01-30T01:30:27.210Z,90.70
2018-01-30T01:32:54.410Z,90.90
2018-01-30T01:35:21.296Z,90.90
2018-01-30T01:37:48.153Z,90.80
2018-01-30T01:40:15.066Z,90.60
2018-01-30T01:42:43.226Z,90.70
2018-01-30T01:45:10.366Z,90.70
2018-01-30T01:47:37.217Z,90.70
2018-01-30T01:50:04.148Z,90.50
2018-01-30T01:52:31.081Z,90.40
2018-01-30T01:54:57.897Z,90.30
2018-01-30T01:57:24.757Z,90.10
2018-01-30T01:59:51.735Z,90.20
2018-01-30T02:02:18.574Z,90.10
2018-01-30T02:04:45.397Z,90.30
2018-01-30T02:07:12.305Z,90.40
2018-01-30T02:09:39.144Z,90.30
2018-01-30T02:12:06.272Z,90.60
2018-01-30T02:14:33.230Z,91.00
2018-01-30T02:17:00.283Z,90.90
2018-01-30T02:19:27.238Z,90.80
2018-01-30T02:21:54.240Z,90.40
2018-01-30T02:24:21.250Z,90.40
2018-01-30T02:26:48.129Z,90.10
2018-01-30T02:29:15.209Z,90.10
2018-01-30T02:31:42.166Z,90.10
2018-01-30T02:34:09.102Z,90.30
2018-01-30T02:36:35.950Z,90.10
2018-01-30T02:39:03.626Z,90.00
2018-01-30T02:41:30.759Z,90.00
2018-01-30T02:43:58.503Z,90.00
2018-01-30T02:46:25.366Z,90.00
2018-01-30T02:48:52.345Z,89.60
2018-01-30T02:51:19.209Z,89.90
2018-01-30T02:53:46.045Z,90.20
2018-01-30T02:56:13.729Z,90.10
2018-01-30T02:58:40.606Z,90.00
2018-01-30T03:01:07.453Z,90.30
2018-01-30T03:03:34.294Z,90.40
2018-01-30T03:06:01.314Z,90.20
2018-01-30T03:08:29.095Z,90.10
2018-01-30T03:10:56.012Z,90.10
2018-01-30T03:13:22.854Z,90.10
2018-01-30T03:15:49.717Z,90.00
2018-01-30T03:18:16.554Z,90.00
2018-01-30T03:20:44.314Z,89.80
2018-01-30T03:23:11.186Z,89.80
2018-01-30T03:25:38.022Z,88.70
2018-01-30T03:28:04.909Z,88.70
2018-01-30T03:30:31.781Z,88.10
2018-01-30T03:32:58.662Z,88.50
2018-01-30T03:35:25.614Z,88.60
2018-01-30T03:37:52.555Z,88.60
2018-01-30T03:40:19.509Z,88.20
2018-01-30T03:42:46.354Z,87.90
2018-01-30T03:45:13.435Z,87.70
2018-01-30T03:47:40.356Z,87.80
2018-01-30T03:50:07.200Z,87.80
2018-01-30T03:52:34.070Z,87.70
2018-01-30T03:55:01.682Z,88.10
2018-01-30T03:57:28.524Z,88.00
2018-01-30T03:59:55.401Z,88.40
2018-01-30T04:02:22.290Z,88.40
2018-01-30T04:04:49.169Z,88.60
2018-01-30T04:07:16.010Z,88.40
2018-01-30T04:09:42.906Z,88.40
2018-01-30T04:12:10.827Z,87.80
2018-01-30T04:14:37.825Z,87.70
2018-01-30T04:17:04.671Z,88.30
2018-01-30T04:19:31.546Z,88.20
2018-01-30T04:21:58.380Z,88.70
2018-01-30T04:24:25.217Z,89.00
2018-01-30T04:26:52.117Z,88.80
2018-01-30T04:29:19.189Z,88.60
2018-01-30T04:31:46.113Z,88.80
2018-01-30T04:34:13.007Z,89.10
2018-01-30T04:36:39.862Z,89.30
2018-01-30T04:39:06.737Z,90.00
2018-01-30T04:41:33.685Z,89.60
2018-01-30T04:44:00.521Z,89.90
2018-01-30T04:46:28.144Z,89.90
2018-01-30T04:48:55.214Z,89.90
2018-01-30T04:51:23.151Z,89.30
2018-01-30T04:53:50.166Z,89.80
2018-01-30T04:56:17.859Z,89.30
2018-01-30T04:58:45.810Z,89.00
2018-01-30T05:01:13.482Z,89.00
2018-01-30T05:03:40.372Z,89.00
2018-01-30T05:06:07.409Z,89.00
2018-01-30T05:08:34.579Z,89.00
2018-01-30T05:11:01.628Z,88.30
2018-01-30T05:13:32.616Z,88.60
2018-01-30T05:15:59.488Z,88.20
2018-01-30T05:18:26.344Z,87.90
2018-01-30T05:20:53.469Z,87.80
2018-01-30T05:23:20.557Z,87.70
2018-01-30T05:25:47.633Z,87.30
2018-01-30T05:28:14.494Z,87.20
2018-01-30T05:30:41.367Z,88.00
2018-01-30T05:33:08.602Z,87.10
2018-01-30T05:35:36.089Z,86.90
2018-01-30T05:38:02.933Z,86.80
2018-01-30T05:40:30.766Z,87.40
2018-01-30T05:42:58.558Z,86.60
2018-01-30T05:45:26.278Z,86.90
2018-01-30T05:47:53.193Z,86.70
2018-01-30T05:50:21.670Z,86.50
2018-01-30T05:52:48.596Z,86.70
2018-01-30T05:55:15.474Z,86.40
2018-01-30T05:57:42.405Z,86.40
2018-01-30T06:00:10.082Z,86.70
2018-01-30T06:02:37.021Z,86.70
2018-01-30T06:05:03.912Z,86.40
2018-01-30T06:07:30.753Z,86.60
2018-01-30T06:09:57.597Z,86.70
2018-01-30T06:12:24.422Z,86.70
2018-01-30T06:14:51.302Z,86.50
2018-01-30T06:17:18.158Z,86.40
2018-01-30T06:19:45.050Z,86.30
2018-01-30T06:22:11.953Z,85.70
2018-01-30T06:24:39.539Z,85.40
2018-01-30T06:27:06.378Z,85.40
2018-01-30T06:29:33.601Z,85.30
2018-01-30T06:32:01.185Z,85.50
2018-01-30T06:34:28.042Z,85.50
2018-01-30T06:36:54.964Z,85.20
2018-01-30T06:39:21.807Z,85.50
2018-01-30T06:41:49.381Z,86.00
2018-01-30T06:44:16.257Z,85.80
2018-01-30T06:46:43.112Z,86.80
2018-01-30T06:49:10.080Z,85.80
2018-01-30T06:51:37.666Z,86.00
2018-01-30T06:54:04.526Z,86.00
2018-01-30T06:56:31.370Z,85.60
2018-01-30T06:58:58.202Z,85.80
2018-01-30T07:01:25.081Z,85.70
2018-01-30T07:03:52.972Z,85.70
2018-01-30T07:06:19.791Z,86.00
2018-01-30T07:08:46.663Z,86.00
2018-01-30T07:11:13.522Z,86.20
2018-01-30T07:13:41.106Z,86.40
2018-01-30T07:16:08.665Z,86.40
2018-01-30T07:18:36.242Z,86.90
2018-01-30T07:21:03.134Z,86.30
2018-01-30T07:23:29.958Z,85.80
2018-01-30T07:25:56.829Z,84.70
2018-01-30T07:28:23.673Z,84.60
2018-01-30T07:30:50.529Z,84.70
2018-01-30T07:33:17.377Z,84.70
2018-01-30T07:35:45.014Z,83.70
2018-01-30T07:38:11.872Z,82.90
2018-01-30T07:40:38.749Z,82.00
2018-01-30T07:43:05.641Z,82.30
2018-01-30T07:45:33.274Z,79.20
2018-01-30T07:48:00.133Z,79.10
2018-01-30T07:50:27.728Z,78.40
2018-01-30T07:52:54.598Z,78.40
2018-01-30T07:55:21.478Z,78.30
2018-01-30T07:57:49.085Z,78.40
2018-01-30T08:00:15.953Z,78.30
2018-01-30T08:02:42.797Z,79.70
2018-01-30T08:05:09.665Z,80.20
2018-01-30T08:07:36.563Z,78.50
2018-01-30T08:10:03.455Z,78.00
2018-01-30T08:12:30.315Z,78.90
2018-01-30T08:14:57.174Z,79.50
2018-01-30T08:17:24.045Z,79.60
2018-01-30T08:19:50.953Z,80.20
2018-01-30T08:22:18.525Z,81.10
2018-01-30T08:24:45.410Z,81.00
2018-01-30T08:27:12.293Z,81.20
2018-01-30T08:29:39.158Z,81.00
2018-01-30T08:32:06.123Z,81.90
2018-01-30T08:34:32.985Z,81.50
2018-01-30T08:36:59.814Z,81.70
2018-01-30T08:39:26.725Z,82.10
2018-01-30T08:41:53.566Z,81.40
2018-01-30T08:44:20.477Z,79.40
2018-01-30T08:46:47.339Z,79.70
2018-01-30T08:49:14.904Z,76.20
2018-01-30T08:51:42.522Z,76.70
2018-01-30T08:54:09.426Z,76.70
2018-01-30T08:56:36.406Z,76.70
2018-01-30T08:59:03.559Z,76.80
2018-01-30T09:01:30.584Z,77.30
2018-01-30T09:03:57.527Z,78.50
2018-01-30T09:06:24.566Z,78.30
2018-01-30T09:08:51.558Z,77.60
2018-01-30T09:11:19.309Z,76.90
2018-01-30T09:13:46.374Z,76.90
2018-01-30T09:16:13.321Z,77.10
2018-01-30T09:18:41.054Z,77.00
2018-01-30T09:21:08.761Z,77.00
2018-01-30T09:23:35.588Z,76.90
2018-01-30T09:26:02.574Z,77.00
2018-01-30T09:28:29.641Z,77.90
2018-01-30T09:30:56.778Z,77.80
2018-01-30T09:33:23.802Z,77.40
2018-01-30T09:35:50.738Z,76.50
2018-01-30T09:38:18.350Z,75.40
2018-01-30T09:40:45.886Z,75.30
2018-01-30T09:43:12.851Z,75.40
2018-01-30T09:45:39.978Z,74.70
2018-01-30T09:48:06.987Z,74.40
2018-01-30T09:50:33.875Z,73.90
2018-01-30T09:53:00.782Z,71.30
2018-01-30T09:55:27.614Z,70.20
2018-01-30T09:57:54.532Z,66.90
2018-01-30T10:00:21.506Z,65.70
2018-01-30T10:02:48.317Z,61.00
2018-01-30T10:05:15.902Z,59.20
2018-01-30T10:07:42.971Z,59.10
2018-01-30T10:10:10.136Z,59.20
2018-01-30T10:12:37.265Z,57.90
2018-01-30T10:15:05.214Z,57.10
2018-01-30T10:17:32.279Z,57.10
2018-01-30T10:19:59.865Z,56.40
2018-01-30T10:22:26.760Z,56.20
2018-01-30T10:24:53.619Z,56.30
2018-01-30T10:27:20.461Z,58.30
2018-01-30T10:29:48.069Z,57.10
2018-01-30T10:32:14.974Z,57.10
2018-01-30T10:34:42.561Z,56.10
2018-01-30T10:37:09.433Z,56.10
2018-01-30T10:39:36.345Z,56.00
2018-01-30T10:42:03.908Z,55.30
2018-01-30T10:44:30.769Z,55.30
2018-01-30T10:46:57.637Z,53.80
2018-01-30T10:49:24.530Z,51.00
2018-01-30T10:51:51.377Z,49.10
2018-01-30T10:54:19.137Z,45.10
2018-01-30T10:56:46.735Z,39.50
2018-01-30T10:59:13.597Z,39.50
2018-01-30T11:01:40.476Z,37.70
2018-01-30T11:04:08.093Z,38.30
2018-01-30T11:06:34.934Z,38.30
2018-01-30T11:09:01.794Z,37.40
2018-01-30T11:11:28.645Z,35.70
2018-01-30T11:13:55.470Z,33.70
2018-01-30T11:16:22.316Z,33.60
2018-01-30T11:18:49.270Z,33.00
2018-01-30T11:21:16.120Z,31.00
2018-01-30T11:23:43.230Z,31.40
2018-01-30T11:26:10.143Z,33.10
2018-01-30T11:28:37.048Z,33.90
2018-01-30T11:31:03.957Z,34.40
2018-01-30T11:33:30.829Z,34.00
2018-01-30T11:35:57.750Z,35.10
2018-01-30T11:38:24.649Z,32.90
2018-01-30T11:40:52.258Z,32.90
2018-01-30T11:43:19.218Z,32.90
2018-01-30T11:45:46.394Z,32.80
2018-01-30T11:48:13.499Z,30.50
2018-01-30T11:50:41.189Z,30.30
2018-01-30T11:53:08.294Z,30.20
2018-01-30T11:55:35.559Z,29.50
2018-01-30T11:58:02.450Z,28.10
2018-01-30T12:00:29.374Z,28.90
2018-01-30T12:02:57.018Z,27.30
2018-01-30T12:05:23.910Z,27.20
2018-01-30T12:07:52.575Z,26.40
2018-01-30T12:10:20.324Z,27.00
2018-01-30T12:12:47.237Z,26.90
2018-01-30T12:15:14.110Z,27.40
2018-01-30T12:17:40.954Z,26.70
2018-01-30T12:20:07.778Z,26.80
2018-01-30T12:22:34.777Z,26.90
2018-01-30T12:25:01.630Z,25.90
2018-01-30T12:27:29.214Z,24.70
2018-01-30T12:29:56.110Z,24.70
2018-01-30T12:32:22.966Z,25.00
2018-01-30T12:34:50.702Z,24.30
2018-01-30T12:37:17.646Z,24.30
2018-01-30T12:39:44.666Z,24.40
2018-01-30T12:42:11.798Z,24.70
2018-01-30T12:44:38.697Z,24.40
2018-01-30T12:47:05.806Z,24.30
2018-01-30T12:49:32.806Z,22.80
2018-01-30T12:51:59.678Z,22.20
2018-01-30T12:54:27.340Z,22.50
2018-01-30T12:56:54.216Z,22.50
2018-01-30T12:59:21.702Z,22.60
2018-01-30T13:01:48.587Z,22.40
2018-01-30T13:04:15.524Z,22.10
2018-01-30T13:06:42.405Z,21.10
2018-01-30T13:09:09.426Z,21.10
2018-01-30T13:11:36.436Z,21.00
2018-01-30T13:14:04.198Z,21.80
2018-01-30T13:16:31.134Z,21.80
2018-01-30T13:18:57.981Z,21.50
2018-01-30T13:21:24.861Z,21.00
2018-01-30T13:23:51.750Z,21.00
2018-01-30T13:26:18.586Z,20.40
2018-01-30T13:28:45.499Z,19.50
2018-01-30T13:31:12.607Z,19.30
2018-01-30T13:33:39.583Z,19.30
2018-01-30T13:36:06.515Z,18.70
2018-01-30T13:38:34.072Z,19.40
2018-01-30T13:41:01.685Z,19.80
2018-01-30T13:43:28.535Z,19.80
2018-01-30T13:45:55.365Z,19.10
2018-01-30T13:48:22.234Z,19.20
2018-01-30T13:50:49.065Z,19.10
2018-01-30T13:53:16.118Z,19.40
2018-01-30T13:55:43.014Z,19.50
2018-01-30T13:58:09.849Z,20.10
2018-01-30T14:00:36.733Z,20.50
2018-01-30T14:03:03.557Z,22.70
2018-01-30T14:05:30.733Z,24.00
2018-01-30T14:07:57.785Z,25.50
2018-01-30T14:10:25.438Z,29.60
2018-01-30T14:12:54.542Z,29.50
2018-01-30T14:15:22.521Z,30.70
2018-01-30T14:17:49.362Z,30.70
2018-01-30T14:20:16.246Z,31.50
2018-01-30T14:22:43.367Z,32.70
2018-01-30T14:25:10.339Z,33.50
2018-01-30T14:27:37.191Z,34.20
2018-01-30T14:30:04.182Z,33.80
2018-01-30T14:32:31.033Z,35.50
2018-01-30T14:34:57.897Z,36.20
2018-01-30T14:37:24.774Z,38.30
2018-01-30T14:39:51.645Z,38.30
2018-01-30T14:42:18.523Z,37.30
2018-01-30T14:44:45.389Z,39.20
2018-01-30T14:47:12.273Z,38.20
2018-01-30T14:49:39.116Z,37.60
2018-01-30T14:52:05.953Z,40.50
2018-01-30T14:54:32.846Z,40.10
2018-01-30T14:57:00.440Z,41.70
2018-01-30T14:59:27.300Z,41.70
2018-01-30T15:01:54.140Z,41.90
2018-01-30T15:04:21.022Z,43.10
2018-01-30T15:06:47.866Z,45.10
2018-01-30T15:09:14.714Z,45.80
2018-01-30T15:11:41.594Z,43.60
2018-01-30T15:14:08.430Z,46.20
2018-01-30T15:16:35.370Z,44.90
2018-01-30T15:19:02.386Z,45.00
2018-01-30T15:21:29.431Z,44.00
2018-01-30T15:23:56.322Z,46.70
2018-01-30T15:26:23.877Z,47.90
2018-01-30T15:28:50.748Z,47.90
2018-01-30T15:31:17.701Z,48.20
2018-01-30T15:33:44.650Z,48.90
2018-01-30T15:36:11.546Z,51.90
2018-01-30T15:38:38.451Z,53.60
2018-01-30T15:41:06.090Z,57.30
2018-01-30T15:43:33.178Z,57.30
2018-01-30T15:46:00.810Z,58.80
2018-01-30T15:48:27.654Z,58.80
2018-01-30T15:50:54.602Z,60.00
2018-01-30T15:53:21.590Z,60.60
2018-01-30T15:55:48.542Z,60.90
2018-01-30T15:58:15.620Z,61.30
2018-01-30T16:00:42.556Z,62.20
2018-01-30T16:03:09.398Z,63.00
2018-01-30T16:05:36.304Z,64.40
2018-01-30T16:08:04.022Z,64.70
2018-01-30T16:10:31.690Z,65.10
2018-01-30T16:12:58.558Z,65.10
2018-01-30T16:15:26.174Z,66.00
2018-01-30T16:17:53.013Z,66.00
2018-01-30T16:20:19.886Z,66.60
2018-01-30T16:22:46.801Z,67.00
2018-01-30T16:25:13.714Z,67.10
2018-01-30T16:27:40.590Z,67.50
2018-01-30T16:30:08.265Z,68.90
2018-01-30T16:32:35.152Z,68.80
2018-01-30T16:35:02.823Z,69.20
2018-01-30T16:37:29.730Z,69.20
2018-01-30T16:39:56.669Z,69.40
2018-01-30T16:42:23.642Z,70.30
2018-01-30T16:44:51.247Z,71.20
2018-01-30T16:47:18.310Z,71.10
2018-01-30T16:49:45.388Z,71.00
2018-01-30T16:52:13.070Z,71.50
2018-01-30T16:54:40.827Z,72.10
2018-01-30T16:57:07.805Z,72.10
2018-01-30T16:59:34.670Z,72.20
2018-01-30T17:02:02.302Z,73.10
2018-01-30T17:04:29.278Z,73.10
2018-01-30T17:06:57.142Z,73.60
2018-01-30T17:09:24.005Z,75.50
2018-01-30T17:11:50.906Z,75.50
2018-01-30T17:14:17.758Z,75.80
2018-01-30T17:16:44.763Z,75.60
2018-01-30T17:19:11.655Z,76.90
2018-01-30T17:21:38.515Z,77.90
2018-01-30T17:24:05.424Z,78.30
2018-01-30T17:26:32.262Z,78.40
2018-01-30T17:28:59.126Z,78.80
2018-01-30T17:31:26.035Z,79.70
2018-01-30T17:33:52.918Z,79.60
2018-01-30T17:36:19.761Z,80.00
2018-01-30T17:38:46.607Z,80.60
2018-01-30T17:41:13.467Z,80.70
2018-01-30T17:43:40.334Z,80.00
2018-01-30T17:46:07.213Z,80.90
2018-01-30T17:48:34.097Z,81.10
2018-01-30T17:51:00.966Z,81.70
2018-01-30T17:53:27.835Z,81.90
2018-01-30T17:55:54.694Z,81.80
2018-01-30T17:58:22.253Z,81.30
2018-01-30T18:00:49.162Z,81.30
2018-01-30T18:03:15.985Z,81.70
2018-01-30T18:05:42.838Z,82.10
2018-01-30T18:08:09.714Z,82.70
2018-01-30T18:10:36.938Z,82.90
2018-01-30T18:13:03.857Z,83.00
2018-01-30T18:15:30.730Z,83.30
2018-01-30T18:17:58.346Z,83.00
2018-01-30T18:20:25.334Z,82.90
2018-01-30T18:22:52.308Z,83.20
2018-01-30T18:25:19.208Z,83.30
2018-01-30T18:27:46.173Z,83.60
2018-01-30T18:30:13.815Z,84.00
2018-01-30T18:32:41.463Z,84.30
2018-01-30T18:35:08.430Z,84.20
2018-01-30T18:37:35.358Z,84.20
2018-01-30T18:40:02.359Z,84.40
2018-01-30T18:42:29.234Z,84.30
2018-01-30T18:44:56.083Z,84.00
2018-01-30T18:47:23.016Z,84.20
2018-01-30T18:49:49.870Z,84.60
2018-01-30T18:52:16.756Z,84.50
2018-01-30T18:54:43.664Z,84.50
2018-01-30T18:57:10.513Z,84.40
2018-01-30T18:59:37.387Z,85.10
2018-01-30T19:02:04.202Z,84.00
2018-01-30T19:04:31.031Z,84.90
2018-01-30T19:06:57.881Z,84.80
2018-01-30T19:09:24.755Z,84.60
2018-01-30T19:11:51.626Z,84.60
2018-01-30T19:14:18.542Z,84.30
2018-01-30T19:16:45.538Z,84.30
2018-01-30T19:19:12.490Z,84.70
2018-01-30T19:21:39.755Z,84.90
2018-01-30T19:24:06.803Z,85.20
2018-01-30T19:26:33.839Z,85.50
2018-01-30T19:29:00.710Z,85.20
2018-01-30T19:31:28.906Z,85.70
2018-01-30T19:33:55.930Z,86.10
2018-01-30T19:36:22.966Z,85.90
2018-01-30T19:38:50.054Z,85.80
2018-01-30T19:41:16.931Z,85.80
2018-01-30T19:43:43.813Z,86.10
2018-01-30T19:46:11.457Z,86.30
2018-01-30T19:48:38.576Z,86.20
2018-01-30T19:51:06.269Z,86.60
2018-01-30T19:53:33.161Z,86.50
2018-01-30T19:56:00.762Z,86.00
2018-01-30T19:58:28.642Z,86.10
2018-01-30T20:00:55.519Z,86.00
2018-01-30T20:03:22.614Z,85.90
2018-01-30T20:05:49.523Z,85.70
2018-01-30T20:08:16.442Z,85.90
2018-01-30T20:10:44.110Z,85.40
2018-01-30T20:13:11.704Z,85.40
2018-01-30T20:15:39.306Z,85.50
2018-01-30T20:18:10.616Z,85.40
2018-01-30T20:20:39.438Z,85.50
2018-01-30T20:23:07.099Z,85.60
2018-01-30T20:25:34.762Z,85.80
2018-01-30T20:28:02.517Z,85.90
2018-01-30T20:30:29.647Z,85.60
2018-01-30T20:32:56.500Z,85.30
2018-01-30T20:35:23.363Z,85.30
2018-01-30T20:37:50.422Z,85.40
2018-01-30T20:40:18.626Z,85.20
2018-01-30T20:42:45.718Z,85.30
2018-01-30T20:45:12.878Z,85.20
2018-01-30T20:47:40.699Z,84.80
2018-01-30T20:50:08.415Z,84.90
2018-01-30T20:52:35.342Z,84.80
2018-01-30T20:55:02.755Z,85.20
2018-01-30T20:57:29.947Z,85.60
2018-01-30T20:59:57.678Z,85.30
2018-01-30T21:02:25.242Z,85.40
2018-01-30T21:04:53.043Z,85.50
2018-01-30T21:07:20.913Z,85.30
2018-01-30T21:09:48.042Z,85.30
2018-01-30T21:12:15.050Z,85.50
2018-01-30T21:14:41.962Z,85.20
2018-01-30T21:17:08.994Z,85.30
2018-01-30T21:19:36.649Z,86.20
2018-01-30T21:22:03.722Z,85.20
2018-01-30T21:24:30.801Z,85.30
2018-01-30T21:26:58.599Z,85.20
2018-01-30T21:29:25.902Z,85.20
2018-01-30T21:31:52.915Z,85.30
2018-01-30T21:34:20.494Z,85.20
2018-01-30T21:36:47.358Z,85.30
2018-01-30T21:39:15.090Z,85.80
2018-01-30T21:41:44.345Z,85.60
2018-01-30T21:44:11.210Z,85.90
2018-01-30T21:46:38.100Z,85.90
2018-01-30T21:49:04.980Z,85.80
2018-01-30T21:51:32.070Z,85.50
2018-01-30T21:53:59.014Z,85.60
2018-01-30T21:56:25.921Z,85.70
2018-01-30T21:58:53.642Z,86.00
2018-01-30T22:01:20.525Z,86.50
2018-01-30T22:03:47.707Z,86.50
2018-01-30T22:06:14.911Z,86.40
2018-01-30T22:08:41.766Z,86.50
2018-01-30T22:11:08.636Z,86.30
2018-01-30T22:13:35.497Z,86.40
2018-01-30T22:16:02.451Z,86.30
2018-01-30T22:18:30.048Z,86.10
2018-01-30T22:20:57.650Z,86.30
2018-01-30T22:23:24.559Z,86.30
2018-01-30T22:25:51.423Z,86.40
2018-01-30T22:28:18.269Z,87.00
2018-01-30T22:30:45.142Z,86.60
2018-01-30T22:33:12.046Z,86.70
2018-01-30T22:35:38.905Z,86.70
2018-01-30T22:38:05.736Z,86.70
2018-01-30T22:40:32.605Z,86.40
2018-01-30T22:42:59.436Z,87.00
2018-01-30T22:45:26.321Z,87.40
